sensor_id;sensor_type;location;lat;lon;timestamp;P1;durP1;ratioP1;P2;durP2;ratioP2
76574;SDS011;65439;50.948;6.988;2023-08-24T00:00:29;7.63;;;5.20;;
76574;SDS011;65439;50.948;6.988;2023-08-24T00:02:54;7.27;;;5.47;;
76574;SDS011;65439;50.948;6.988;2023-08-24T00:05:20;9.60;;;5.17;;
76574;SDS011;65439;50.948;6.988;2023-08-24T00:07:46;13.85;;;5.95;;
76574;SDS011;65439;50.948;6.988;2023-08-24T00:10:13;8.50;;;5.10;;
76574;SDS011;65439;50.948;6.988;2023-08-24T00:12:38;8.02;;;5.15;;
76574;SDS011;65439;50.948;6.988;2023-08-24T00:15:04;7.25;;;4.85;;
76574;SDS011;65439;50.948;6.988;2023-08-24T00:17:33;9.70;;;5.47;;
76574;SDS011;65439;50.948;6.988;2023-08-24T00:19:59;7.43;;;5.25;;
76574;SDS011;65439;50.948;6.988;2023-08-24T00:22:24;9.00;;;5.00;;
76574;SDS011;65439;50.948;6.988;2023-08-24T00:24:49;8.32;;;5.22;;
76574;SDS011;65439;50.948;6.988;2023-08-24T00:27:15;6.53;;;4.60;;
76574;SDS011;65439;50.948;6.988;2023-08-24T00:29:40;12.93;;;5.63;;
76574;SDS011;65439;50.948;6.988;2023-08-24T00:32:05;10.63;;;5.70;;
76574;SDS011;65439;50.948;6.988;2023-08-24T00:34:31;10.40;;;5.25;;
76574;SDS011;65439;50.948;6.988;2023-08-24T00:36:56;10.43;;;5.43;;
76574;SDS011;65439;50.948;6.988;2023-08-24T00:39:22;7.57;;;5.10;;
76574;SDS011;65439;50.948;6.988;2023-08-24T00:41:47;14.07;;;5.77;;
76574;SDS011;65439;50.948;6.988;2023-08-24T00:44:12;9.70;;;4.57;;
76574;SDS011;65439;50.948;6.988;2023-08-24T00:46:38;11.17;;;5.23;;
76574;SDS011;65439;50.948;6.988;2023-08-24T00:49:03;7.67;;;4.97;;
76574;SDS011;65439;50.948;6.988;2023-08-24T00:51:29;6.85;;;5.30;;
76574;SDS011;65439;50.948;6.988;2023-08-24T00:53:54;13.13;;;4.68;;
76574;SDS011;65439;50.948;6.988;2023-08-24T00:56:19;10.18;;;4.72;;
76574;SDS011;65439;50.948;6.988;2023-08-24T00:58:49;7.95;;;5.18;;
76574;SDS011;65439;50.948;6.988;2023-08-24T01:01:15;8.10;;;5.20;;
76574;SDS011;65439;50.948;6.988;2023-08-24T01:03:42;6.70;;;5.22;;
76574;SDS011;65439;50.948;6.988;2023-08-24T01:06:07;12.83;;;5.03;;
76574;SDS011;65439;50.948;6.988;2023-08-24T01:08:32;8.00;;;5.68;;
76574;SDS011;65439;50.948;6.988;2023-08-24T01:11:07;7.18;;;4.22;;
76574;SDS011;65439;50.948;6.988;2023-08-24T01:13:50;8.55;;;4.95;;
76574;SDS011;65439;50.948;6.988;2023-08-24T01:16:33;8.30;;;5.88;;
76574;SDS011;65439;50.948;6.988;2023-08-24T01:19:05;7.18;;;5.30;;
76574;SDS011;65439;50.948;6.988;2023-08-24T01:21:32;8.07;;;5.35;;
76574;SDS011;65439;50.948;6.988;2023-08-24T01:24:02;12.52;;;5.43;;
76574;SDS011;65439;50.948;6.988;2023-08-24T01:26:31;8.32;;;5.43;;
76574;SDS011;65439;50.948;6.988;2023-08-24T01:28:57;11.70;;;6.00;;
76574;SDS011;65439;50.948;6.988;2023-08-24T01:31:23;8.48;;;5.47;;
76574;SDS011;65439;50.948;6.988;2023-08-24T01:33:49;7.78;;;5.57;;
76574;SDS011;65439;50.948;6.988;2023-08-24T01:36:15;8.73;;;6.77;;
76574;SDS011;65439;50.948;6.988;2023-08-24T01:38:44;8.85;;;4.80;;
76574;SDS011;65439;50.948;6.988;2023-08-24T01:43:42;10.52;;;5.20;;
76574;SDS011;65439;50.948;6.988;2023-08-24T01:46:08;10.95;;;7.50;;
76574;SDS011;65439;50.948;6.988;2023-08-24T01:48:37;15.38;;;5.72;;
76574;SDS011;65439;50.948;6.988;2023-08-24T01:51:03;8.15;;;5.13;;
76574;SDS011;65439;50.948;6.988;2023-08-24T01:53:30;11.05;;;5.78;;
76574;SDS011;65439;50.948;6.988;2023-08-24T01:55:56;7.57;;;4.93;;
76574;SDS011;65439;50.948;6.988;2023-08-24T01:58:21;8.03;;;5.13;;
76574;SDS011;65439;50.948;6.988;2023-08-24T02:00:46;6.83;;;5.17;;
76574;SDS011;65439;50.948;6.988;2023-08-24T02:03:12;7.93;;;5.07;;
76574;SDS011;65439;50.948;6.988;2023-08-24T02:05:37;14.00;;;6.30;;
76574;SDS011;65439;50.948;6.988;2023-08-24T02:08:23;9.38;;;5.82;;
76574;SDS011;65439;50.948;6.988;2023-08-24T02:10:48;7.30;;;6.10;;
76574;SDS011;65439;50.948;6.988;2023-08-24T02:13:14;11.40;;;6.07;;
76574;SDS011;65439;50.948;6.988;2023-08-24T02:15:39;9.83;;;6.20;;
76574;SDS011;65439;50.948;6.988;2023-08-24T02:18:05;7.22;;;5.28;;
76574;SDS011;65439;50.948;6.988;2023-08-24T02:20:34;8.05;;;4.60;;
76574;SDS011;65439;50.948;6.988;2023-08-24T02:23:02;7.28;;;4.95;;
76574;SDS011;65439;50.948;6.988;2023-08-24T02:25:31;5.63;;;4.53;;
76574;SDS011;65439;50.948;6.988;2023-08-24T02:27:56;8.65;;;5.18;;
76574;SDS011;65439;50.948;6.988;2023-08-24T02:30:22;8.38;;;4.93;;
76574;SDS011;65439;50.948;6.988;2023-08-24T02:32:47;14.17;;;5.33;;
76574;SDS011;65439;50.948;6.988;2023-08-24T02:35:12;9.60;;;4.90;;
76574;SDS011;65439;50.948;6.988;2023-08-24T02:37:38;11.48;;;5.07;;
76574;SDS011;65439;50.948;6.988;2023-08-24T02:40:03;7.87;;;5.93;;
76574;SDS011;65439;50.948;6.988;2023-08-24T02:42:32;8.10;;;5.45;;
76574;SDS011;65439;50.948;6.988;2023-08-24T02:44:58;12.55;;;5.40;;
76574;SDS011;65439;50.948;6.988;2023-08-24T02:47:23;7.38;;;4.45;;
76574;SDS011;65439;50.948;6.988;2023-08-24T02:49:49;8.50;;;5.00;;
76574;SDS011;65439;50.948;6.988;2023-08-24T02:52:14;7.50;;;4.73;;
76574;SDS011;65439;50.948;6.988;2023-08-24T02:54:39;6.07;;;4.87;;
76574;SDS011;65439;50.948;6.988;2023-08-24T02:57:04;9.97;;;4.93;;
76574;SDS011;65439;50.948;6.988;2023-08-24T02:59:30;7.83;;;4.70;;
76574;SDS011;65439;50.948;6.988;2023-08-24T03:01:55;8.80;;;6.10;;
76574;SDS011;65439;50.948;6.988;2023-08-24T03:04:20;7.40;;;5.23;;
76574;SDS011;65439;50.948;6.988;2023-08-24T03:06:46;7.35;;;5.53;;
76574;SDS011;65439;50.948;6.988;2023-08-24T03:09:11;7.40;;;5.00;;
76574;SDS011;65439;50.948;6.988;2023-08-24T03:11:37;7.20;;;4.75;;
76574;SDS011;65439;50.948;6.988;2023-08-24T03:14:02;8.00;;;4.73;;
76574;SDS011;65439;50.948;6.988;2023-08-24T03:16:28;9.27;;;5.27;;
76574;SDS011;65439;50.948;6.988;2023-08-24T03:18:53;8.80;;;4.43;;
76574;SDS011;65439;50.948;6.988;2023-08-24T03:21:18;8.57;;;4.97;;
76574;SDS011;65439;50.948;6.988;2023-08-24T03:23:44;7.60;;;4.67;;
76574;SDS011;65439;50.948;6.988;2023-08-24T03:26:09;9.87;;;6.27;;
76574;SDS011;65439;50.948;6.988;2023-08-24T03:28:34;9.03;;;4.63;;
76574;SDS011;65439;50.948;6.988;2023-08-24T03:31:00;9.27;;;5.97;;
76574;SDS011;65439;50.948;6.988;2023-08-24T03:33:25;7.47;;;5.25;;
76574;SDS011;65439;50.948;6.988;2023-08-24T03:35:52;18.40;;;5.35;;
76574;SDS011;65439;50.948;6.988;2023-08-24T03:38:18;9.23;;;4.95;;
76574;SDS011;65439;50.948;6.988;2023-08-24T03:40:43;7.80;;;4.40;;
76574;SDS011;65439;50.948;6.988;2023-08-24T03:43:09;6.35;;;4.68;;
76574;SDS011;65439;50.948;6.988;2023-08-24T03:45:34;9.23;;;5.00;;
76574;SDS011;65439;50.948;6.988;2023-08-24T03:47:59;8.77;;;4.10;;
76574;SDS011;65439;50.948;6.988;2023-08-24T03:50:24;9.17;;;4.90;;
76574;SDS011;65439;50.948;6.988;2023-08-24T03:52:51;13.18;;;4.78;;
76574;SDS011;65439;50.948;6.988;2023-08-24T03:55:16;7.63;;;4.93;;
76574;SDS011;65439;50.948;6.988;2023-08-24T03:57:42;5.47;;;4.07;;
76574;SDS011;65439;50.948;6.988;2023-08-24T04:00:07;6.20;;;4.30;;
76574;SDS011;65439;50.948;6.988;2023-08-24T04:02:36;7.00;;;4.88;;
76574;SDS011;65439;50.948;6.988;2023-08-24T04:05:03;11.40;;;4.45;;
76574;SDS011;65439;50.948;6.988;2023-08-24T04:07:28;6.43;;;4.55;;
76574;SDS011;65439;50.948;6.988;2023-08-24T04:09:53;4.97;;;4.47;;
76574;SDS011;65439;50.948;6.988;2023-08-24T04:12:19;11.00;;;5.07;;
76574;SDS011;65439;50.948;6.988;2023-08-24T04:14:44;8.73;;;5.10;;
76574;SDS011;65439;50.948;6.988;2023-08-24T04:17:09;10.80;;;5.00;;
76574;SDS011;65439;50.948;6.988;2023-08-24T04:19:37;9.00;;;4.73;;
76574;SDS011;65439;50.948;6.988;2023-08-24T04:22:03;7.03;;;4.63;;
76574;SDS011;65439;50.948;6.988;2023-08-24T04:24:28;7.15;;;4.32;;
76574;SDS011;65439;50.948;6.988;2023-08-24T04:26:53;9.63;;;4.35;;
76574;SDS011;65439;50.948;6.988;2023-08-24T04:29:19;6.77;;;4.67;;
76574;SDS011;65439;50.948;6.988;2023-08-24T04:31:44;6.10;;;4.37;;
76574;SDS011;65439;50.948;6.988;2023-08-24T04:34:09;7.33;;;5.10;;
76574;SDS011;65439;50.948;6.988;2023-08-24T04:36:36;6.70;;;4.78;;
76574;SDS011;65439;50.948;6.988;2023-08-24T04:39:01;11.25;;;5.47;;
76574;SDS011;65439;50.948;6.988;2023-08-24T04:41:27;7.68;;;4.93;;
76574;SDS011;65439;50.948;6.988;2023-08-24T04:43:52;8.95;;;5.63;;
76574;SDS011;65439;50.948;6.988;2023-08-24T04:46:17;7.83;;;4.73;;
76574;SDS011;65439;50.948;6.988;2023-08-24T04:48:43;10.87;;;5.50;;
76574;SDS011;65439;50.948;6.988;2023-08-24T04:51:08;8.90;;;5.53;;
76574;SDS011;65439;50.948;6.988;2023-08-24T04:53:34;8.43;;;6.43;;
76574;SDS011;65439;50.948;6.988;2023-08-24T04:55:59;13.68;;;6.28;;
76574;SDS011;65439;50.948;6.988;2023-08-24T04:58:24;7.90;;;5.67;;
76574;SDS011;65439;50.948;6.988;2023-08-24T05:00:50;11.07;;;5.95;;
76574;SDS011;65439;50.948;6.988;2023-08-24T05:03:15;11.97;;;7.03;;
76574;SDS011;65439;50.948;6.988;2023-08-24T05:05:41;11.53;;;7.33;;
76574;SDS011;65439;50.948;6.988;2023-08-24T05:08:06;12.75;;;6.72;;
76574;SDS011;65439;50.948;6.988;2023-08-24T05:10:35;7.95;;;6.47;;
76574;SDS011;65439;50.948;6.988;2023-08-24T05:13:00;11.23;;;7.38;;
76574;SDS011;65439;50.948;6.988;2023-08-24T05:15:26;14.50;;;7.13;;
76574;SDS011;65439;50.948;6.988;2023-08-24T05:17:51;10.18;;;7.18;;
76574;SDS011;65439;50.948;6.988;2023-08-24T05:20:19;9.48;;;6.57;;
76574;SDS011;65439;50.948;6.988;2023-08-24T05:22:45;14.65;;;8.00;;
76574;SDS011;65439;50.948;6.988;2023-08-24T05:25:10;11.47;;;7.23;;
76574;SDS011;65439;50.948;6.988;2023-08-24T05:27:36;12.63;;;6.97;;
76574;SDS011;65439;50.948;6.988;2023-08-24T05:30:02;8.23;;;7.38;;
76574;SDS011;65439;50.948;6.988;2023-08-24T05:32:27;9.77;;;7.32;;
76574;SDS011;65439;50.948;6.988;2023-08-24T05:34:52;14.60;;;7.57;;
76574;SDS011;65439;50.948;6.988;2023-08-24T05:37:18;11.07;;;7.00;;
76574;SDS011;65439;50.948;6.988;2023-08-24T05:39:43;8.33;;;7.20;;
76574;SDS011;65439;50.948;6.988;2023-08-24T05:42:08;9.10;;;6.37;;
76574;SDS011;65439;50.948;6.988;2023-08-24T05:44:34;9.85;;;7.25;;
76574;SDS011;65439;50.948;6.988;2023-08-24T05:46:59;12.57;;;7.28;;
76574;SDS011;65439;50.948;6.988;2023-08-24T05:49:25;10.60;;;7.55;;
76574;SDS011;65439;50.948;6.988;2023-08-24T05:51:50;11.17;;;8.50;;
76574;SDS011;65439;50.948;6.988;2023-08-24T05:54:16;10.48;;;7.50;;
76574;SDS011;65439;50.948;6.988;2023-08-24T05:56:45;11.82;;;7.28;;
76574;SDS011;65439;50.948;6.988;2023-08-24T05:59:10;10.32;;;6.95;;
76574;SDS011;65439;50.948;6.988;2023-08-24T06:01:36;10.13;;;7.57;;
76574;SDS011;65439;50.948;6.988;2023-08-24T06:04:07;10.10;;;7.07;;
76574;SDS011;65439;50.948;6.988;2023-08-24T06:06:33;8.55;;;7.00;;
76574;SDS011;65439;50.948;6.988;2023-08-24T06:08:59;8.70;;;6.47;;
76574;SDS011;65439;50.948;6.988;2023-08-24T06:11:24;9.40;;;6.50;;
76574;SDS011;65439;50.948;6.988;2023-08-24T06:13:49;10.80;;;6.67;;
76574;SDS011;65439;50.948;6.988;2023-08-24T06:16:17;10.50;;;7.72;;
76574;SDS011;65439;50.948;6.988;2023-08-24T06:18:42;8.40;;;6.30;;
76574;SDS011;65439;50.948;6.988;2023-08-24T06:21:07;9.47;;;6.33;;
76574;SDS011;65439;50.948;6.988;2023-08-24T06:23:33;8.88;;;7.22;;
76574;SDS011;65439;50.948;6.988;2023-08-24T06:25:58;9.20;;;7.07;;
76574;SDS011;65439;50.948;6.988;2023-08-24T06:28:24;11.53;;;6.93;;
76574;SDS011;65439;50.948;6.988;2023-08-24T06:30:49;9.27;;;7.10;;
76574;SDS011;65439;50.948;6.988;2023-08-24T06:33:16;7.83;;;6.63;;
76574;SDS011;65439;50.948;6.988;2023-08-24T06:35:41;10.88;;;6.88;;
76574;SDS011;65439;50.948;6.988;2023-08-24T06:38:07;8.03;;;6.80;;
76574;SDS011;65439;50.948;6.988;2023-08-24T06:40:32;10.20;;;7.17;;
76574;SDS011;65439;50.948;6.988;2023-08-24T06:42:57;11.23;;;6.43;;
76574;SDS011;65439;50.948;6.988;2023-08-24T06:45:23;8.90;;;6.00;;
76574;SDS011;65439;50.948;6.988;2023-08-24T06:47:48;8.57;;;5.93;;
76574;SDS011;65439;50.948;6.988;2023-08-24T06:50:14;8.13;;;5.95;;
76574;SDS011;65439;50.948;6.988;2023-08-24T06:52:40;9.02;;;6.00;;
76574;SDS011;65439;50.948;6.988;2023-08-24T06:55:06;6.72;;;5.32;;
76574;SDS011;65439;50.948;6.988;2023-08-24T06:57:32;7.78;;;5.72;;
76574;SDS011;65439;50.948;6.988;2023-08-24T06:59:58;8.47;;;5.90;;
76574;SDS011;65439;50.948;6.988;2023-08-24T07:02:23;7.87;;;6.33;;
76574;SDS011;65439;50.948;6.988;2023-08-24T07:04:48;6.97;;;5.40;;
76574;SDS011;65439;50.948;6.988;2023-08-24T07:07:14;8.20;;;5.33;;
76574;SDS011;65439;50.948;6.988;2023-08-24T07:09:39;7.88;;;5.22;;
76574;SDS011;65439;50.948;6.988;2023-08-24T07:12:04;8.57;;;6.10;;
76574;SDS011;65439;50.948;6.988;2023-08-24T07:14:32;9.40;;;4.55;;
76574;SDS011;65439;50.948;6.988;2023-08-24T07:16:58;5.80;;;4.70;;
76574;SDS011;65439;50.948;6.988;2023-08-24T07:19:23;7.37;;;5.20;;
76574;SDS011;65439;50.948;6.988;2023-08-24T07:21:48;7.10;;;4.60;;
76574;SDS011;65439;50.948;6.988;2023-08-24T07:24:14;7.53;;;5.03;;
76574;SDS011;65439;50.948;6.988;2023-08-24T07:26:40;5.77;;;4.70;;
76574;SDS011;65439;50.948;6.988;2023-08-24T07:29:06;5.82;;;4.00;;
76574;SDS011;65439;50.948;6.988;2023-08-24T07:31:31;6.33;;;4.30;;
76574;SDS011;65439;50.948;6.988;2023-08-24T07:33:57;8.98;;;3.97;;
76574;SDS011;65439;50.948;6.988;2023-08-24T07:36:23;11.23;;;4.72;;
76574;SDS011;65439;50.948;6.988;2023-08-24T07:38:48;5.65;;;4.53;;
76574;SDS011;65439;50.948;6.988;2023-08-24T07:41:14;6.70;;;4.13;;
76574;SDS011;65439;50.948;6.988;2023-08-24T07:43:39;5.97;;;3.97;;
76574;SDS011;65439;50.948;6.988;2023-08-24T07:46:05;6.15;;;4.55;;
76574;SDS011;65439;50.948;6.988;2023-08-24T07:48:30;5.88;;;4.38;;
76574;SDS011;65439;50.948;6.988;2023-08-24T07:50:55;8.88;;;4.13;;
76574;SDS011;65439;50.948;6.988;2023-08-24T07:53:21;8.02;;;4.88;;
76574;SDS011;65439;50.948;6.988;2023-08-24T07:55:46;5.87;;;4.10;;
76574;SDS011;65439;50.948;6.988;2023-08-24T07:58:13;5.57;;;4.07;;
76574;SDS011;65439;50.948;6.988;2023-08-24T08:00:38;6.40;;;4.27;;
76574;SDS011;65439;50.948;6.988;2023-08-24T08:03:04;4.90;;;3.90;;
76574;SDS011;65439;50.948;6.988;2023-08-24T08:07:55;10.07;;;3.47;;
76574;SDS011;65439;50.948;6.988;2023-08-24T08:12:46;6.20;;;3.88;;
76574;SDS011;65439;50.948;6.988;2023-08-24T08:17:37;6.67;;;5.00;;
76574;SDS011;65439;50.948;6.988;2023-08-24T08:22:27;5.60;;;3.38;;
76574;SDS011;65439;50.948;6.988;2023-08-24T08:24:53;4.33;;;3.53;;
76574;SDS011;65439;50.948;6.988;2023-08-24T08:27:19;6.10;;;3.65;;
76574;SDS011;65439;50.948;6.988;2023-08-24T08:32:10;5.50;;;3.58;;
76574;SDS011;65439;50.948;6.988;2023-08-24T08:34:37;7.10;;;4.07;;
76574;SDS011;65439;50.948;6.988;2023-08-24T08:37:02;5.72;;;4.15;;
76574;SDS011;65439;50.948;6.988;2023-08-24T08:39:28;7.10;;;3.97;;
76574;SDS011;65439;50.948;6.988;2023-08-24T08:41:53;8.93;;;3.80;;
76574;SDS011;65439;50.948;6.988;2023-08-24T08:46:44;5.80;;;3.70;;
76574;SDS011;65439;50.948;6.988;2023-08-24T08:49:11;5.03;;;3.50;;
76574;SDS011;65439;50.948;6.988;2023-08-24T08:51:37;5.05;;;3.10;;
76574;SDS011;65439;50.948;6.988;2023-08-24T08:54:03;10.85;;;4.47;;
76574;SDS011;65439;50.948;6.988;2023-08-24T08:56:30;8.77;;;3.92;;
76574;SDS011;65439;50.948;6.988;2023-08-24T08:58:56;8.45;;;3.88;;
76574;SDS011;65439;50.948;6.988;2023-08-24T09:01:24;5.45;;;4.18;;
76574;SDS011;65439;50.948;6.988;2023-08-24T09:06:14;11.60;;;3.67;;
76574;SDS011;65439;50.948;6.988;2023-08-24T09:11:05;5.97;;;3.63;;
76574;SDS011;65439;50.948;6.988;2023-08-24T09:13:33;5.88;;;3.83;;
76574;SDS011;65439;50.948;6.988;2023-08-24T09:18:37;4.95;;;3.38;;
76574;SDS011;65439;50.948;6.988;2023-08-24T09:21:07;4.68;;;3.28;;
76574;SDS011;65439;50.948;6.988;2023-08-24T09:23:33;9.02;;;3.33;;
76574;SDS011;65439;50.948;6.988;2023-08-24T09:28:24;8.90;;;3.63;;
76574;SDS011;65439;50.948;6.988;2023-08-24T09:33:17;7.85;;;3.58;;
76574;SDS011;65439;50.948;6.988;2023-08-24T09:40:46;4.65;;;3.70;;
76574;SDS011;65439;50.948;6.988;2023-08-24T09:43:16;5.50;;;3.30;;
76574;SDS011;65439;50.948;6.988;2023-08-24T09:48:20;6.53;;;3.72;;
76574;SDS011;65439;50.948;6.988;2023-08-24T09:50:49;5.85;;;3.33;;
76574;SDS011;65439;50.948;6.988;2023-08-24T09:55:44;11.90;;;5.22;;
76574;SDS011;65439;50.948;6.988;2023-08-24T09:58:26;5.82;;;3.80;;
76574;SDS011;65439;50.948;6.988;2023-08-24T10:00:51;5.60;;;3.83;;
76574;SDS011;65439;50.948;6.988;2023-08-24T10:03:21;7.82;;;4.03;;
76574;SDS011;65439;50.948;6.988;2023-08-24T10:05:50;6.97;;;3.83;;
76574;SDS011;65439;50.948;6.988;2023-08-24T10:08:20;7.38;;;4.10;;
76574;SDS011;65439;50.948;6.988;2023-08-24T10:10:47;5.00;;;3.90;;
76574;SDS011;65439;50.948;6.988;2023-08-24T10:13:17;4.80;;;3.50;;
76574;SDS011;65439;50.948;6.988;2023-08-24T10:15:44;6.40;;;3.83;;
76574;SDS011;65439;50.948;6.988;2023-08-24T10:18:11;5.53;;;3.47;;
76574;SDS011;65439;50.948;6.988;2023-08-24T10:20:38;6.43;;;3.40;;
76574;SDS011;65439;50.948;6.988;2023-08-24T10:23:04;5.45;;;3.85;;
76574;SDS011;65439;50.948;6.988;2023-08-24T10:25:30;5.13;;;3.90;;
76574;SDS011;65439;50.948;6.988;2023-08-24T10:27:55;5.43;;;3.10;;
76574;SDS011;65439;50.948;6.988;2023-08-24T10:32:46;6.40;;;4.57;;
76574;SDS011;65439;50.948;6.988;2023-08-24T10:35:14;6.10;;;4.22;;
76574;SDS011;65439;50.948;6.988;2023-08-24T10:37:40;6.82;;;3.67;;
76574;SDS011;65439;50.948;6.988;2023-08-24T10:40:09;7.20;;;3.67;;
76574;SDS011;65439;50.948;6.988;2023-08-24T10:42:45;5.90;;;3.20;;
76574;SDS011;65439;50.948;6.988;2023-08-24T10:45:14;12.07;;;3.45;;
76574;SDS011;65439;50.948;6.988;2023-08-24T10:47:43;9.60;;;3.47;;
76574;SDS011;65439;50.948;6.988;2023-08-24T10:50:10;6.03;;;2.72;;
76574;SDS011;65439;50.948;6.988;2023-08-24T10:52:37;7.18;;;3.58;;
76574;SDS011;65439;50.948;6.988;2023-08-24T10:55:04;5.13;;;2.63;;
76574;SDS011;65439;50.948;6.988;2023-08-24T10:57:38;4.28;;;3.08;;
76574;SDS011;65439;50.948;6.988;2023-08-24T11:02:43;5.35;;;2.60;;
76574;SDS011;65439;50.948;6.988;2023-08-24T11:08:05;5.10;;;3.80;;
76574;SDS011;65439;50.948;6.988;2023-08-24T11:10:44;6.63;;;3.53;;
76574;SDS011;65439;50.948;6.988;2023-08-24T11:13:14;5.95;;;3.15;;
76574;SDS011;65439;50.948;6.988;2023-08-24T11:20:39;7.57;;;2.95;;
76574;SDS011;65439;50.948;6.988;2023-08-24T11:23:07;4.88;;;2.92;;
76574;SDS011;65439;50.948;6.988;2023-08-24T11:28:00;5.72;;;3.38;;
76574;SDS011;65439;50.948;6.988;2023-08-24T11:32:53;4.93;;;3.00;;
76574;SDS011;65439;50.948;6.988;2023-08-24T11:35:19;4.00;;;3.15;;
76574;SDS011;65439;50.948;6.988;2023-08-24T11:37:50;7.43;;;3.22;;
76574;SDS011;65439;50.948;6.988;2023-08-24T11:40:22;7.68;;;3.67;;
76574;SDS011;65439;50.948;6.988;2023-08-24T11:42:54;8.23;;;5.22;;
76574;SDS011;65439;50.948;6.988;2023-08-24T11:45:22;7.65;;;3.28;;
76574;SDS011;65439;50.948;6.988;2023-08-24T11:50:14;7.90;;;3.35;;
76574;SDS011;65439;50.948;6.988;2023-08-24T11:52:39;6.00;;;3.40;;
76574;SDS011;65439;50.948;6.988;2023-08-24T11:55:05;5.50;;;3.15;;
76574;SDS011;65439;50.948;6.988;2023-08-24T11:57:35;5.55;;;3.47;;
76574;SDS011;65439;50.948;6.988;2023-08-24T12:00:10;6.82;;;3.28;;
76574;SDS011;65439;50.948;6.988;2023-08-24T12:02:38;7.40;;;3.05;;
76574;SDS011;65439;50.948;6.988;2023-08-24T12:05:11;4.18;;;2.60;;
76574;SDS011;65439;50.948;6.988;2023-08-24T12:07:45;8.98;;;3.63;;
76574;SDS011;65439;50.948;6.988;2023-08-24T12:12:36;8.53;;;3.93;;
76574;SDS011;65439;50.948;6.988;2023-08-24T12:15:01;8.10;;;3.47;;
76574;SDS011;65439;50.948;6.988;2023-08-24T12:19:57;5.10;;;3.25;;
76574;SDS011;65439;50.948;6.988;2023-08-24T12:22:24;8.75;;;4.22;;
76574;SDS011;65439;50.948;6.988;2023-08-24T12:27:26;7.03;;;3.57;;
76574;SDS011;65439;50.948;6.988;2023-08-24T12:29:52;8.05;;;4.10;;
76574;SDS011;65439;50.948;6.988;2023-08-24T12:34:48;10.20;;;3.47;;
76574;SDS011;65439;50.948;6.988;2023-08-24T12:39:39;5.53;;;3.30;;
76574;SDS011;65439;50.948;6.988;2023-08-24T12:42:05;7.22;;;4.25;;
76574;SDS011;65439;50.948;6.988;2023-08-24T12:44:31;9.88;;;4.18;;
76574;SDS011;65439;50.948;6.988;2023-08-24T12:49:21;5.07;;;4.30;;
76574;SDS011;65439;50.948;6.988;2023-08-24T12:54:12;6.23;;;3.87;;
76574;SDS011;65439;50.948;6.988;2023-08-24T12:59:04;10.18;;;4.75;;
76574;SDS011;65439;50.948;6.988;2023-08-24T13:01:29;6.93;;;4.23;;
76574;SDS011;65439;50.948;6.988;2023-08-24T13:03:55;8.50;;;4.03;;
76574;SDS011;65439;50.948;6.988;2023-08-24T13:06:20;7.90;;;4.47;;
76574;SDS011;65439;50.948;6.988;2023-08-24T13:11:11;9.93;;;4.17;;
76574;SDS011;65439;50.948;6.988;2023-08-24T13:13:36;8.33;;;4.00;;
76574;SDS011;65439;50.948;6.988;2023-08-24T13:16:05;9.45;;;4.35;;
76574;SDS011;65439;50.948;6.988;2023-08-24T13:18:30;6.78;;;5.28;;
76574;SDS011;65439;50.948;6.988;2023-08-24T13:23:21;8.33;;;3.93;;
76574;SDS011;65439;50.948;6.988;2023-08-24T13:25:46;7.78;;;3.88;;
76574;SDS011;65439;50.948;6.988;2023-08-24T13:30:37;9.70;;;3.40;;
76574;SDS011;65439;50.948;6.988;2023-08-24T13:33:02;6.65;;;3.88;;
76574;SDS011;65439;50.948;6.988;2023-08-24T13:35:28;9.30;;;3.45;;
76574;SDS011;65439;50.948;6.988;2023-08-24T13:40:18;7.00;;;3.50;;
76574;SDS011;65439;50.948;6.988;2023-08-24T13:45:09;8.32;;;3.55;;
76574;SDS011;65439;50.948;6.988;2023-08-24T13:47:35;6.75;;;3.67;;
76574;SDS011;65439;50.948;6.988;2023-08-24T13:50:00;7.55;;;3.45;;
76574;SDS011;65439;50.948;6.988;2023-08-24T13:54:51;7.82;;;3.10;;
76574;SDS011;65439;50.948;6.988;2023-08-24T13:57:16;10.27;;;4.23;;
76574;SDS011;65439;50.948;6.988;2023-08-24T14:02:07;7.33;;;3.20;;
76574;SDS011;65439;50.948;6.988;2023-08-24T14:06:58;7.23;;;4.37;;
76574;SDS011;65439;50.948;6.988;2023-08-24T14:09:23;6.25;;;3.50;;
76574;SDS011;65439;50.948;6.988;2023-08-24T14:14:14;7.53;;;3.37;;
76574;SDS011;65439;50.948;6.988;2023-08-24T14:19:04;6.43;;;2.93;;
76574;SDS011;65439;50.948;6.988;2023-08-24T14:23:55;5.80;;;2.87;;
76574;SDS011;65439;50.948;6.988;2023-08-24T14:26:20;4.97;;;3.43;;
76574;SDS011;65439;50.948;6.988;2023-08-24T14:28:56;9.60;;;3.50;;
76574;SDS011;65439;50.948;6.988;2023-08-24T14:31:27;5.90;;;3.65;;
76574;SDS011;65439;50.948;6.988;2023-08-24T14:33:54;9.60;;;4.88;;
76574;SDS011;65439;50.948;6.988;2023-08-24T14:36:19;4.38;;;3.08;;
76574;SDS011;65439;50.948;6.988;2023-08-24T14:38:47;5.05;;;3.13;;
76574;SDS011;65439;50.948;6.988;2023-08-24T14:41:14;5.72;;;3.30;;
76574;SDS011;65439;50.948;6.988;2023-08-24T14:43:39;5.25;;;3.15;;
76574;SDS011;65439;50.948;6.988;2023-08-24T14:48:31;4.88;;;3.30;;
76574;SDS011;65439;50.948;6.988;2023-08-24T14:50:56;8.73;;;3.53;;
76574;SDS011;65439;50.948;6.988;2023-08-24T14:53:22;6.15;;;3.47;;
76574;SDS011;65439;50.948;6.988;2023-08-24T14:55:48;6.95;;;3.92;;
76574;SDS011;65439;50.948;6.988;2023-08-24T14:58:14;7.38;;;3.20;;
76574;SDS011;65439;50.948;6.988;2023-08-24T15:00:39;9.32;;;3.90;;
76574;SDS011;65439;50.948;6.988;2023-08-24T15:03:07;7.90;;;2.75;;
76574;SDS011;65439;50.948;6.988;2023-08-24T15:08:05;6.22;;;3.13;;
76574;SDS011;65439;50.948;6.988;2023-08-24T15:10:30;14.70;;;3.90;;
76574;SDS011;65439;50.948;6.988;2023-08-24T15:12:56;6.60;;;3.10;;
76574;SDS011;65439;50.948;6.988;2023-08-24T15:15:21;8.87;;;3.47;;
76574;SDS011;65439;50.948;6.988;2023-08-24T15:17:46;8.03;;;2.63;;
76574;SDS011;65439;50.948;6.988;2023-08-24T15:20:12;7.65;;;3.15;;
76574;SDS011;65439;50.948;6.988;2023-08-24T15:22:38;4.68;;;2.72;;
76574;SDS011;65439;50.948;6.988;2023-08-24T15:25:04;5.63;;;2.85;;
76574;SDS011;65439;50.948;6.988;2023-08-24T15:27:30;9.43;;;2.78;;
76574;SDS011;65439;50.948;6.988;2023-08-24T15:29:55;6.93;;;2.83;;
76574;SDS011;65439;50.948;6.988;2023-08-24T15:32:20;5.67;;;3.07;;
76574;SDS011;65439;50.948;6.988;2023-08-24T15:34:46;6.37;;;3.07;;
76574;SDS011;65439;50.948;6.988;2023-08-24T15:37:12;6.40;;;2.75;;
76574;SDS011;65439;50.948;6.988;2023-08-24T15:39:38;6.53;;;3.75;;
76574;SDS011;65439;50.948;6.988;2023-08-24T15:42:04;4.50;;;2.50;;
76574;SDS011;65439;50.948;6.988;2023-08-24T15:44:30;6.43;;;2.95;;
76574;SDS011;65439;50.948;6.988;2023-08-24T15:46:56;5.90;;;2.63;;
76574;SDS011;65439;50.948;6.988;2023-08-24T15:49:21;5.93;;;2.45;;
76574;SDS011;65439;50.948;6.988;2023-08-24T15:51:47;8.07;;;2.80;;
76574;SDS011;65439;50.948;6.988;2023-08-24T15:54:13;5.88;;;3.08;;
76574;SDS011;65439;50.948;6.988;2023-08-24T15:56:39;7.10;;;3.67;;
76574;SDS011;65439;50.948;6.988;2023-08-24T15:59:06;9.23;;;3.70;;
76574;SDS011;65439;50.948;6.988;2023-08-24T16:01:32;6.50;;;3.00;;
76574;SDS011;65439;50.948;6.988;2023-08-24T16:03:57;7.77;;;3.10;;
76574;SDS011;65439;50.948;6.988;2023-08-24T16:06:22;5.55;;;3.50;;
76574;SDS011;65439;50.948;6.988;2023-08-24T16:08:48;5.80;;;2.53;;
76574;SDS011;65439;50.948;6.988;2023-08-24T16:11:13;8.40;;;3.50;;
76574;SDS011;65439;50.948;6.988;2023-08-24T16:13:39;8.73;;;3.55;;
76574;SDS011;65439;50.948;6.988;2023-08-24T16:16:04;6.67;;;3.23;;
76574;SDS011;65439;50.948;6.988;2023-08-24T16:18:32;6.47;;;3.10;;
76574;SDS011;65439;50.948;6.988;2023-08-24T16:20:58;6.85;;;3.08;;
76574;SDS011;65439;50.948;6.988;2023-08-24T16:23:24;7.95;;;3.20;;
76574;SDS011;65439;50.948;6.988;2023-08-24T16:25:49;5.93;;;3.08;;
76574;SDS011;65439;50.948;6.988;2023-08-24T16:28:15;4.63;;;3.10;;
76574;SDS011;65439;50.948;6.988;2023-08-24T16:30:40;6.35;;;3.33;;